sensor_id;sensor_type;location;lat;lon;timestamp;pressure;altitude;pressure_sealevel;temperature;humidity
68179;BME280;69812;42.632;23.440;2024-01-30T00:01:13;97055.03;;;-6.65;92.92
68179;BME280;69812;42.632;23.440;2024-01-30T00:03:38;97049.97;;;-6.69;93.20
68179;BME280;69812;42.632;23.440;2024-01-30T00:06:04;97062.56;;;-6.60;93.47
68179;BME280;69812;42.632;23.440;2024-01-30T00:08:32;97070.06;;;-6.58;93.72
68179;BME280;69812;42.632;23.440;2024-01-30T00:10:57;97055.78;;;-6.72;93.76
68179;BME280;69812;42.632;23.440;2024-01-30T00:13:22;97060.84;;;-6.66;93.67
68179;BME280;69812;42.632;23.440;2024-01-30T00:15:48;97057.38;;;-6.78;93.70
68179;BME280;69812;42.632;23.440;2024-01-30T00:18:14;97055.56;;;-6.89;93.79
68179;BME280;69812;42.632;23.440;2024-01-30T00:20:39;97060.50;;;-6.92;93.97
68179;BME280;69812;42.632;23.440;2024-01-30T00:23:04;97053.03;;;-6.92;93.82
68179;BME280;69812;42.632;23.440;2024-01-30T00:25:30;97068.09;;;-6.87;94.11
68179;BME280;69812;42.632;23.440;2024-01-30T00:27:55;97078.06;;;-6.86;94.07
68179;BME280;69812;42.632;23.440;2024-01-30T00:30:21;97077.22;;;-6.88;94.16
68179;BME280;69812;42.632;23.440;2024-01-30T00:32:47;97042.94;;;-7.01;94.26
68179;BME280;69812;42.632;23.440;2024-01-30T00:35:12;97071.47;;;-6.82;94.37
68179;BME280;69812;42.632;23.440;2024-01-30T00:37:37;97071.50;;;-6.80;94.33
68179;BME280;69812;42.632;23.440;2024-01-30T00:40:03;97065.63;;;-6.81;93.99
68179;BME280;69812;42.632;23.440;2024-01-30T00:42:29;97071.44;;;-6.84;93.87
68179;BME280;69812;42.632;23.440;2024-01-30T00:44:54;97064.78;;;-6.83;93.87
68179;BME280;69812;42.632;23.440;2024-01-30T00:47:20;97060.50;;;-6.92;93.79
68179;BME280;69812;42.632;23.440;2024-01-30T00:49:45;97058.78;;;-6.97;93.63
68179;BME280;69812;42.632;23.440;2024-01-30T00:52:11;97077.22;;;-6.89;93.74
68179;BME280;69812;42.632;23.440;2024-01-30T00:54:37;97052.88;;;-7.04;94.03
68179;BME280;69812;42.632;23.440;2024-01-30T00:57:02;97068.06;;;-6.86;94.12
68179;BME280;69812;42.632;23.440;2024-01-30T00:59:28;97075.53;;;-6.89;94.05
68179;BME280;69812;42.632;23.440;2024-01-30T01:01:53;97050.38;;;-7.04;94.08
68179;BME280;69812;42.632;23.440;2024-01-30T01:04:18;97048.63;;;-7.11;94.05
68179;BME280;69812;42.632;23.440;2024-01-30T01:06:46;97065.38;;;-7.03;94.32
68179;BME280;69812;42.632;23.440;2024-01-30T01:09:12;97068.72;;;-7.02;94.25
68179;BME280;69812;42.632;23.440;2024-01-30T01:11:37;97063.59;;;-7.13;94.23
68179;BME280;69812;42.632;23.440;2024-01-30T01:14:03;97066.16;;;-7.07;94.32
68179;BME280;69812;42.632;23.440;2024-01-30T01:16:29;97073.66;;;-7.05;94.56
68179;BME280;69812;42.632;23.440;2024-01-30T01:18:54;97065.34;;;-7.06;94.50
68179;BME280;69812;42.632;23.440;2024-01-30T01:21:20;97061.94;;;-7.09;94.05
68179;BME280;69812;42.632;23.440;2024-01-30T01:23:45;97039.31;;;-7.23;93.96
68179;BME280;69812;42.632;23.440;2024-01-30T01:26:11;97065.19;;;-7.16;93.79
68179;BME280;69812;42.632;23.440;2024-01-30T01:28:36;97070.09;;;-7.23;93.88
68179;BME280;69812;42.632;23.440;2024-01-30T01:31:02;97075.91;;;-7.24;93.82
68179;BME280;69812;42.632;23.440;2024-01-30T01:33:33;97052.69;;;-7.18;93.86
68179;BME280;69812;42.632;23.440;2024-01-30T01:36:00;97073.81;;;-6.96;93.48
68179;BME280;69812;42.632;23.440;2024-01-30T01:38:27;97064.53;;;-7.03;93.51
68179;BME280;69812;42.632;23.440;2024-01-30T01:40:53;97072.28;;;-6.85;93.93
68179;BME280;69812;42.632;23.440;2024-01-30T01:43:18;97079.69;;;-6.88;93.79
68179;BME280;69812;42.632;23.440;2024-01-30T01:45:45;97069.66;;;-6.94;93.59
68179;BME280;69812;42.632;23.440;2024-01-30T01:48:10;97069.66;;;-6.92;93.12
68179;BME280;69812;42.632;23.440;2024-01-30T01:50:37;97067.19;;;-6.91;92.82
68179;BME280;69812;42.632;23.440;2024-01-30T01:53:03;97074.75;;;-6.86;92.71
68179;BME280;69812;42.632;23.440;2024-01-30T01:55:30;97071.50;;;-6.77;92.45
68179;BME280;69812;42.632;23.440;2024-01-30T01:57:57;97062.16;;;-6.92;92.42
68179;BME280;69812;42.632;23.440;2024-01-30T02:00:23;97065.53;;;-6.90;92.55
68179;BME280;69812;42.632;23.440;2024-01-30T02:02:49;97070.09;;;-6.57;92.18
68179;BME280;69812;42.632;23.440;2024-01-30T02:05:15;97077.28;;;-6.82;91.87
68179;BME280;69812;42.632;23.440;2024-01-30T02:07:42;97083.94;;;-6.82;92.02
68179;BME280;69812;42.632;23.440;2024-01-30T02:10:08;97075.63;;;-6.83;92.36
68179;BME280;69812;42.632;23.440;2024-01-30T02:12:34;97074.09;;;-6.71;92.73
68179;BME280;69812;42.632;23.440;2024-01-30T02:14:59;97079.19;;;-6.62;93.10
68179;BME280;69812;42.632;23.440;2024-01-30T02:17:25;97082.59;;;-6.57;92.76
68179;BME280;69812;42.632;23.440;2024-01-30T02:19:50;97081.94;;;-6.41;92.62
68179;BME280;69812;42.632;23.440;2024-01-30T02:22:16;97069.53;;;-6.30;91.71
68179;BME280;69812;42.632;23.440;2024-01-30T02:24:41;97079.63;;;-6.22;91.64
68179;BME280;69812;42.632;23.440;2024-01-30T02:27:07;97067.06;;;-6.27;91.96
68179;BME280;69812;42.632;23.440;2024-01-30T02:29:32;97082.25;;;-6.10;92.21
68179;BME280;69812;42.632;23.440;2024-01-30T02:31:57;97074.94;;;-5.87;91.99
68179;BME280;69812;42.632;23.440;2024-01-30T02:34:23;97069.94;;;-5.85;91.48
68179;BME280;69812;42.632;23.440;2024-01-30T02:36:48;97064.22;;;-5.72;91.71
68179;BME280;69812;42.632;23.440;2024-01-30T02:39:14;97080.16;;;-5.58;91.10
68179;BME280;69812;42.632;23.440;2024-01-30T02:41:40;97070.25;;;-5.42;91.17
68179;BME280;69812;42.632;23.440;2024-01-30T02:44:05;97068.59;;;-5.40;90.98
68179;BME280;69812;42.632;23.440;2024-01-30T02:46:30;97077.94;;;-5.18;90.06
68179;BME280;69812;42.632;23.440;2024-01-30T02:48:56;97081.28;;;-5.12;90.16
68179;BME280;69812;42.632;23.440;2024-01-30T02:51:22;97081.34;;;-5.06;89.92
68179;BME280;69812;42.632;23.440;2024-01-30T02:53:47;97060.44;;;-5.10;89.76
68179;BME280;69812;42.632;23.440;2024-01-30T02:56:13;97066.34;;;-5.00;89.65
68179;BME280;69812;42.632;23.440;2024-01-30T02:58:39;97078.94;;;-4.86;89.36
68179;BME280;69812;42.632;23.440;2024-01-30T03:01:06;97078.94;;;-4.86;88.87
68179;BME280;69812;42.632;23.440;2024-01-30T03:03:31;97083.97;;;-4.82;88.66
68179;BME280;69812;42.632;23.440;2024-01-30T03:05:57;97072.28;;;-4.80;89.05
68179;BME280;69812;42.632;23.440;2024-01-30T03:08:22;97074.78;;;-4.80;88.91
68179;BME280;69812;42.632;23.440;2024-01-30T03:10:48;97056.38;;;-4.91;89.16
68179;BME280;69812;42.632;23.440;2024-01-30T03:13:13;97061.38;;;-4.94;89.07
68179;BME280;69812;42.632;23.440;2024-01-30T03:15:39;97072.25;;;-4.89;89.18
68179;BME280;69812;42.632;23.440;2024-01-30T03:18:04;97065.53;;;-4.96;89.33
68179;BME280;69812;42.632;23.440;2024-01-30T03:20:30;97079.75;;;-4.90;89.73
68179;BME280;69812;42.632;23.440;2024-01-30T03:22:55;97066.50;;;-4.69;89.06
68179;BME280;69812;42.632;23.440;2024-01-30T03:25:21;97058.88;;;-4.94;89.01
68179;BME280;69812;42.632;23.440;2024-01-30T03:27:46;97065.53;;;-4.95;89.41
68179;BME280;69812;42.632;23.440;2024-01-30T03:30:12;97064.69;;;-4.95;89.78
68179;BME280;69812;42.632;23.440;2024-01-30T03:32:37;97071.38;;;-4.92;90.35
68179;BME280;69812;42.632;23.440;2024-01-30T03:35:03;97069.75;;;-4.89;90.49
68179;BME280;69812;42.632;23.440;2024-01-30T03:37:29;97053.91;;;-4.88;90.24
68179;BME280;69812;42.632;23.440;2024-01-30T03:39:54;97045.56;;;-4.85;89.61
68179;BME280;69812;42.632;23.440;2024-01-30T03:42:20;97047.34;;;-4.46;87.94
68179;BME280;69812;42.632;23.440;2024-01-30T03:44:45;97048.16;;;-4.61;87.67
68179;BME280;69812;42.632;23.440;2024-01-30T03:47:10;97047.31;;;-4.58;87.47
68179;BME280;69812;42.632;23.440;2024-01-30T03:49:36;97049.00;;;-4.54;88.13
68179;BME280;69812;42.632;23.440;2024-01-30T03:52:01;97050.69;;;-4.50;88.76
68179;BME280;69812;42.632;23.440;2024-01-30T03:54:27;97026.47;;;-4.49;86.21
68179;BME280;69812;42.632;23.440;2024-01-30T03:56:52;97045.72;;;-4.39;85.88
68179;BME280;69812;42.632;23.440;2024-01-30T03:59:18;97049.03;;;-4.39;84.68
68179;BME280;69812;42.632;23.440;2024-01-30T04:01:48;97049.03;;;-4.46;84.16
68179;BME280;69812;42.632;23.440;2024-01-30T04:04:13;97049.03;;;-4.42;85.01
68179;BME280;69812;42.632;23.440;2024-01-30T04:06:38;97054.88;;;-4.41;85.33
68179;BME280;69812;42.632;23.440;2024-01-30T04:09:04;97050.75;;;-4.28;83.33
68179;BME280;69812;42.632;23.440;2024-01-30T04:11:29;97035.69;;;-4.33;82.53
68179;BME280;69812;42.632;23.440;2024-01-30T04:13:55;97043.22;;;-4.35;82.36
68179;BME280;69812;42.632;23.440;2024-01-30T04:16:20;97030.63;;;-4.50;82.39
68179;BME280;69812;42.632;23.440;2024-01-30T04:18:47;97053.22;;;-4.48;81.70
68179;BME280;69812;42.632;23.440;2024-01-30T04:21:12;97049.84;;;-4.55;81.85
68179;BME280;69812;42.632;23.440;2024-01-30T04:23:39;97056.50;;;-4.62;81.75
68179;BME280;69812;42.632;23.440;2024-01-30T04:26:05;97058.13;;;-4.67;82.07
68179;BME280;69812;42.632;23.440;2024-01-30T04:28:30;97040.50;;;-4.88;82.48
68179;BME280;69812;42.632;23.440;2024-01-30T04:30:56;97052.19;;;-4.95;82.93
68179;BME280;69812;42.632;23.440;2024-01-30T04:33:21;97062.13;;;-5.09;83.62
68179;BME280;69812;42.632;23.440;2024-01-30T04:35:49;97050.38;;;-5.22;83.74
68179;BME280;69812;42.632;23.440;2024-01-30T04:38:14;97058.63;;;-5.37;84.23
68179;BME280;69812;42.632;23.440;2024-01-30T04:40:40;97064.34;;;-5.53;84.99
68179;BME280;69812;42.632;23.440;2024-01-30T04:43:05;97040.78;;;-5.85;85.17
68179;BME280;69812;42.632;23.440;2024-01-30T04:45:31;97048.22;;;-5.91;86.14
68179;BME280;69812;42.632;23.440;2024-01-30T04:47:56;97064.84;;;-6.01;86.79
68179;BME280;69812;42.632;23.440;2024-01-30T04:50:22;97068.03;;;-6.14;87.49
68179;BME280;69812;42.632;23.440;2024-01-30T04:52:48;97058.75;;;-6.29;87.69
68179;BME280;69812;42.632;23.440;2024-01-30T04:55:13;97056.91;;;-6.44;88.00
68179;BME280;69812;42.632;23.440;2024-01-30T04:57:39;97081.09;;;-6.41;88.02
68179;BME280;69812;42.632;23.440;2024-01-30T05:00:05;97082.75;;;-6.42;88.18
68179;BME280;69812;42.632;23.440;2024-01-30T05:02:30;97069.19;;;-6.65;88.59
68179;BME280;69812;42.632;23.440;2024-01-30T05:04:56;97082.38;;;-6.72;88.63
68179;BME280;69812;42.632;23.440;2024-01-30T05:07:22;97087.31;;;-6.77;89.04
68179;BME280;69812;42.632;23.440;2024-01-30T05:09:47;97081.53;;;-6.76;89.61
68179;BME280;69812;42.632;23.440;2024-01-30T05:12:13;97082.34;;;-6.77;89.86
68179;BME280;69812;42.632;23.440;2024-01-30T05:14:38;97073.19;;;-6.78;90.08
68179;BME280;69812;42.632;23.440;2024-01-30T05:17:04;97082.22;;;-6.86;90.06
68179;BME280;69812;42.632;23.440;2024-01-30T05:19:29;97089.69;;;-6.89;90.22
68179;BME280;69812;42.632;23.440;2024-01-30T05:21:54;97061.09;;;-7.11;89.94
68179;BME280;69812;42.632;23.440;2024-01-30T05:24:20;97072.72;;;-7.15;90.20
68179;BME280;69812;42.632;23.440;2024-01-30T05:26:45;97087.78;;;-7.09;90.56
68179;BME280;69812;42.632;23.440;2024-01-30T05:29:12;97086.00;;;-7.17;90.63
68179;BME280;69812;42.632;23.440;2024-01-30T05:31:37;97090.31;;;-7.04;90.41
68179;BME280;69812;42.632;23.440;2024-01-30T05:34:03;97096.91;;;-7.09;90.09
68179;BME280;69812;42.632;23.440;2024-01-30T05:36:28;97097.84;;;-7.01;89.38
68179;BME280;69812;42.632;23.440;2024-01-30T05:38:53;97088.59;;;-7.08;89.15
68179;BME280;69812;42.632;23.440;2024-01-30T05:41:19;97082.00;;;-7.03;88.97
68179;BME280;69812;42.632;23.440;2024-01-30T05:43:46;97082.06;;;-7.00;88.96
68179;BME280;69812;42.632;23.440;2024-01-30T05:46:11;97076.06;;;-7.11;89.16
68179;BME280;69812;42.632;23.440;2024-01-30T05:48:37;97107.97;;;-6.90;89.49
68179;BME280;69812;42.632;23.440;2024-01-30T05:51:02;97101.44;;;-6.79;89.32
68179;BME280;69812;42.632;23.440;2024-01-30T05:53:29;97096.50;;;-6.74;89.07
68179;BME280;69812;42.632;23.440;2024-01-30T05:55:54;97092.53;;;-6.60;88.39
68179;BME280;69812;42.632;23.440;2024-01-30T05:58:20;97108.59;;;-6.39;88.21
68179;BME280;69812;42.632;23.440;2024-01-30T06:00:46;97104.06;;;-5.90;88.60
68179;BME280;69812;42.632;23.440;2024-01-30T06:03:11;97101.28;;;-5.19;87.98
68179;BME280;69812;42.632;23.440;2024-01-30T06:05:37;97097.50;;;-4.46;86.59
68179;BME280;69812;42.632;23.440;2024-01-30T06:08:02;97096.78;;;-3.89;80.80
68179;BME280;69812;42.632;23.440;2024-01-30T06:10:28;97090.13;;;-3.44;75.64
68179;BME280;69812;42.632;23.440;2024-01-30T06:12:53;97082.56;;;-3.01;73.20
68179;BME280;69812;42.632;23.440;2024-01-30T06:15:18;97088.31;;;-2.64;68.70
68179;BME280;69812;42.632;23.440;2024-01-30T06:17:44;97077.31;;;-2.38;68.58
68179;BME280;69812;42.632;23.440;2024-01-30T06:20:09;97095.56;;;-2.02;66.16
68179;BME280;69812;42.632;23.440;2024-01-30T06:22:35;97073.75;;;-2.05;64.82
68179;BME280;69812;42.632;23.440;2024-01-30T06:25:01;97072.06;;;-2.03;64.36
68179;BME280;69812;42.632;23.440;2024-01-30T06:27:26;97080.28;;;-1.73;64.12
68179;BME280;69812;42.632;23.440;2024-01-30T06:29:52;97073.31;;;-1.40;63.20
68179;BME280;69812;42.632;23.440;2024-01-30T06:32:17;97091.88;;;-0.64;60.04
68179;BME280;69812;42.632;23.440;2024-01-30T06:34:42;97079.69;;;-0.28;60.18
68179;BME280;69812;42.632;23.440;2024-01-30T06:37:09;97100.41;;;-0.06;60.06
68179;BME280;69812;42.632;23.440;2024-01-30T06:39:35;97095.72;;;-0.34;58.14
68179;BME280;69812;42.632;23.440;2024-01-30T06:42:00;97090.44;;;-0.88;60.23
68179;BME280;69812;42.632;23.440;2024-01-30T06:44:25;97084.41;;;-1.68;61.42
68179;BME280;69812;42.632;23.440;2024-01-30T06:46:51;97078.81;;;-2.11;62.44
68179;BME280;69812;42.632;23.440;2024-01-30T06:49:16;97096.56;;;-2.36;63.33
68179;BME280;69812;42.632;23.440;2024-01-30T06:51:42;97105.06;;;-2.60;64.14
68179;BME280;69812;42.632;23.440;2024-01-30T06:54:07;97085.88;;;-2.96;65.90
68179;BME280;69812;42.632;23.440;2024-01-30T06:56:35;97097.63;;;-3.14;66.85
68179;BME280;69812;42.632;23.440;2024-01-30T06:59:00;97101.81;;;-3.16;67.20
68179;BME280;69812;42.632;23.440;2024-01-30T07:01:29;97101.81;;;-3.28;67.78
68179;BME280;69812;42.632;23.440;2024-01-30T07:03:55;97114.38;;;-3.22;67.87
68179;BME280;69812;42.632;23.440;2024-01-30T07:06:20;97107.69;;;-3.24;68.16
68179;BME280;69812;42.632;23.440;2024-01-30T07:08:46;97099.31;;;-3.26;67.95
68179;BME280;69812;42.632;23.440;2024-01-30T07:11:20;97107.69;;;-3.18;68.57
68179;BME280;69812;42.632;23.440;2024-01-30T07:13:48;97114.38;;;-3.06;68.58
68179;BME280;69812;42.632;23.440;2024-01-30T07:16:14;97095.09;;;-3.00;68.01
68179;BME280;69812;42.632;23.440;2024-01-30T07:18:40;97108.38;;;-2.53;67.98
68179;BME280;69812;42.632;23.440;2024-01-30T07:21:05;97107.09;;;-1.69;64.16
68179;BME280;69812;42.632;23.440;2024-01-30T07:23:31;97097.09;;;-0.79;60.95
68179;BME280;69812;42.632;23.440;2024-01-30T07:25:56;97112.78;;;0.11;56.14
68179;BME280;69812;42.632;23.440;2024-01-30T07:28:21;97082.41;;;0.18;54.98
68179;BME280;69812;42.632;23.440;2024-01-30T07:30:47;97096.03;;;0.63;53.42
68179;BME280;69812;42.632;23.440;2024-01-30T07:33:13;97096.91;;;0.04;54.80
68179;BME280;69812;42.632;23.440;2024-01-30T07:35:39;97108.69;;;0.02;52.06
68179;BME280;69812;42.632;23.440;2024-01-30T07:38:04;97107.19;;;-0.11;53.50
68179;BME280;69812;42.632;23.440;2024-01-30T07:40:29;97104.28;;;-0.47;54.78
68179;BME280;69812;42.632;23.440;2024-01-30T07:42:55;97100.97;;;-0.52;55.24
68179;BME280;69812;42.632;23.440;2024-01-30T07:45:20;97109.22;;;-0.36;55.40
68179;BME280;69812;42.632;23.440;2024-01-30T07:47:50;97088.59;;;-0.72;55.95
68179;BME280;69812;42.632;23.440;2024-01-30T07:50:16;97102.78;;;-0.65;55.41
68179;BME280;69812;42.632;23.440;2024-01-30T07:52:42;97101.72;;;-0.46;55.40
68179;BME280;69812;42.632;23.440;2024-01-30T07:55:07;97110.34;;;-0.64;56.28
68179;BME280;69812;42.632;23.440;2024-01-30T07:57:33;97093.63;;;-0.71;55.17
68179;BME280;69812;42.632;23.440;2024-01-30T08:00:00;97094.50;;;-0.75;55.79
68179;BME280;69812;42.632;23.440;2024-01-30T08:02:25;97105.47;;;-0.76;55.12
68179;BME280;69812;42.632;23.440;2024-01-30T08:04:50;97101.25;;;-0.77;55.36
68179;BME280;69812;42.632;23.440;2024-01-30T08:07:16;97092.81;;;-0.74;55.53
68179;BME280;69812;42.632;23.440;2024-01-30T08:09:43;97102.00;;;-0.67;54.86
68179;BME280;69812;42.632;23.440;2024-01-30T08:12:08;97081.53;;;-0.44;54.66
68179;BME280;69812;42.632;23.440;2024-01-30T08:14:34;97100.38;;;-0.05;54.29
68179;BME280;69812;42.632;23.440;2024-01-30T08:16:59;97096.81;;;0.10;51.62
68179;BME280;69812;42.632;23.440;2024-01-30T08:19:24;97085.09;;;0.06;52.77
68179;BME280;69812;42.632;23.440;2024-01-30T08:21:50;97099.63;;;0.48;52.57
68179;BME280;69812;42.632;23.440;2024-01-30T08:24:15;97093.72;;;0.49;51.73
68179;BME280;69812;42.632;23.440;2024-01-30T08:26:41;97071.09;;;-0.15;51.24
68179;BME280;69812;42.632;23.440;2024-01-30T08:29:06;97086.97;;;-0.08;53.09
68179;BME280;69812;42.632;23.440;2024-01-30T08:31:31;97104.75;;;-0.17;52.38
68179;BME280;69812;42.632;23.440;2024-01-30T08:33:57;97086.44;;;-0.30;53.47
68179;BME280;69812;42.632;23.440;2024-01-30T08:36:22;97103.22;;;-0.29;53.32
68179;BME280;69812;42.632;23.440;2024-01-30T08:38:48;97104.94;;;-0.31;53.30
68179;BME280;69812;42.632;23.440;2024-01-30T08:41:14;97106.44;;;-0.15;53.97
68179;BME280;69812;42.632;23.440;2024-01-30T08:43:39;97102.94;;;-0.76;55.97
68179;BME280;69812;42.632;23.440;2024-01-30T08:46:05;97116.75;;;-0.35;53.41
68179;BME280;69812;42.632;23.440;2024-01-30T08:48:32;97101.41;;;-0.18;53.23
68179;BME280;69812;42.632;23.440;2024-01-30T08:50:58;97111.19;;;0.07;52.24
68179;BME280;69812;42.632;23.440;2024-01-30T08:53:23;97120.19;;;0.25;51.58
68179;BME280;69812;42.632;23.440;2024-01-30T08:55:49;97111.44;;;0.47;51.52
68179;BME280;69812;42.632;23.440;2024-01-30T08:58:15;97103.59;;;0.64;50.03
68179;BME280;69812;42.632;23.440;2024-01-30T09:00:43;97117.16;;;1.08;51.03
68179;BME280;69812;42.632;23.440;2024-01-30T09:03:08;97118.41;;;1.34;49.37
68179;BME280;69812;42.632;23.440;2024-01-30T09:05:34;97106.66;;;1.30;50.01
68179;BME280;69812;42.632;23.440;2024-01-30T09:07:59;97096.13;;;1.53;49.04
68179;BME280;69812;42.632;23.440;2024-01-30T09:10:24;97100.78;;;1.29;48.50
68179;BME280;69812;42.632;23.440;2024-01-30T09:12:50;97103.97;;;0.92;49.16
68179;BME280;69812;42.632;23.440;2024-01-30T09:15:15;97097.28;;;0.88;49.04
68179;BME280;69812;42.632;23.440;2024-01-30T09:17:41;97099.34;;;0.68;49.32
68179;BME280;69812;42.632;23.440;2024-01-30T09:20:06;97098.63;;;0.59;49.61
68179;BME280;69812;42.632;23.440;2024-01-30T09:22:32;97101.06;;;0.66;50.76
68179;BME280;69812;42.632;23.440;2024-01-30T09:24:57;97100.81;;;0.78;50.92
68179;BME280;69812;42.632;23.440;2024-01-30T09:27:23;97095.78;;;0.78;50.92
68179;BME280;69812;42.632;23.440;2024-01-30T09:29:49;97104.31;;;0.72;49.96
68179;BME280;69812;42.632;23.440;2024-01-30T09:32:14;97107.19;;;0.49;50.20
68179;BME280;69812;42.632;23.440;2024-01-30T09:34:40;97111.81;;;0.19;50.84
68179;BME280;69812;42.632;23.440;2024-01-30T09:37:05;97102.59;;;0.20;50.55
68179;BME280;69812;42.632;23.440;2024-01-30T09:39:30;97101.88;;;0.10;51.11
68179;BME280;69812;42.632;23.440;2024-01-30T09:42:20;97089.97;;;0.18;50.98
68179;BME280;69812;42.632;23.440;2024-01-30T09:44:53;97090.69;;;0.27;51.11
68179;BME280;69812;42.632;23.440;2024-01-30T09:47:18;97087.94;;;0.42;50.08
68179;BME280;69812;42.632;23.440;2024-01-30T09:49:44;97090.16;;;0.60;49.42
68179;BME280;69812;42.632;23.440;2024-01-30T09:52:10;97093.25;;;0.78;49.38
68179;BME280;69812;42.632;23.440;2024-01-30T09:54:36;97067.69;;;0.95;49.04
68179;BME280;69812;42.632;23.440;2024-01-30T09:57:03;97087.91;;;0.95;48.51
68179;BME280;69812;42.632;23.440;2024-01-30T09:59:29;97077.13;;;1.32;48.75
68179;BME280;69812;42.632;23.440;2024-01-30T10:01:55;97085.03;;;1.99;47.69
68179;BME280;69812;42.632;23.440;2024-01-30T10:04:21;97078.00;;;2.13;46.92
68179;BME280;69812;42.632;23.440;2024-01-30T10:06:47;97078.69;;;2.20;45.79
68179;BME280;69812;42.632;23.440;2024-01-30T10:09:12;97055.84;;;2.21;45.02
68179;BME280;69812;42.632;23.440;2024-01-30T10:11:39;97075.97;;;2.28;45.16
68179;BME280;69812;42.632;23.440;2024-01-30T10:14:04;97073.38;;;1.93;45.59
68179;BME280;69812;42.632;23.440;2024-01-30T10:16:30;97066.16;;;1.73;47.37
68179;BME280;69812;42.632;23.440;2024-01-30T10:18:55;97079.94;;;2.02;46.85
68179;BME280;69812;42.632;23.440;2024-01-30T10:21:21;97075.47;;;2.13;47.01
68179;BME280;69812;42.632;23.440;2024-01-30T10:23:48;97056.66;;;1.84;46.43
68179;BME280;69812;42.632;23.440;2024-01-30T10:26:16;97085.06;;;1.58;48.58
68179;BME280;69812;42.632;23.440;2024-01-30T10:28:42;97072.03;;;1.33;48.79
68179;BME280;69812;42.632;23.440;2024-01-30T10:31:07;97059.25;;;0.96;49.68
68179;BME280;69812;42.632;23.440;2024-01-30T10:33:34;97059.47;;;0.84;49.56
68179;BME280;69812;42.632;23.440;2024-01-30T10:36:04;97079.41;;;0.99;49.46
68179;BME280;69812;42.632;23.440;2024-01-30T10:38:30;97066.56;;;1.11;49.28
68179;BME280;69812;42.632;23.440;2024-01-30T10:41:00;97064.13;;;1.05;50.01
68179;BME280;69812;42.632;23.440;2024-01-30T10:43:31;97052.94;;;1.17;49.38
68179;BME280;69812;42.632;23.440;2024-01-30T10:46:20;97070.09;;;1.48;48.99
68179;BME280;69812;42.632;23.440;2024-01-30T10:48:57;97045.31;;;1.20;49.31
68179;BME280;69812;42.632;23.440;2024-01-30T10:51:25;97056.25;;;1.22;49.50
68179;BME280;69812;42.632;23.440;2024-01-30T10:53:52;97071.16;;;1.36;49.03
68179;BME280;69812;42.632;23.440;2024-01-30T10:56:21;97070.63;;;1.62;49.31
68179;BME280;69812;42.632;23.440;2024-01-30T10:58:51;97058.41;;;1.40;49.87
68179;BME280;69812;42.632;23.440;2024-01-30T11:01:23;97058.19;;;1.08;50.87
68179;BME280;69812;42.632;23.440;2024-01-30T11:03:53;97056.94;;;0.82;51.50
68179;BME280;69812;42.632;23.440;2024-01-30T11:06:22;97037.66;;;1.23;51.64
68179;BME280;69812;42.632;23.440;2024-01-30T11:09:04;97044.53;;;1.16;50.90
68179;BME280;69812;42.632;23.440;2024-01-30T11:11:57;97047.28;;;1.04;50.53
68179;BME280;69812;42.632;23.440;2024-01-30T11:14:26;97038.75;;;1.10;50.43
68179;BME280;69812;42.632;23.440;2024-01-30T11:16:52;97041.41;;;1.03;51.56
68179;BME280;69812;42.632;23.440;2024-01-30T11:19:27;97037.63;;;1.26;51.14
68179;BME280;69812;42.632;23.440;2024-01-30T11:21:53;97025.06;;;1.21;49.98
68179;BME280;69812;42.632;23.440;2024-01-30T11:24:20;97025.94;;;1.19;50.96
68179;BME280;69812;42.632;23.440;2024-01-30T11:26:56;97044.56;;;1.15;51.63
68179;BME280;69812;42.632;23.440;2024-01-30T11:29:27;97049.09;;;1.42;50.92
68179;BME280;69812;42.632;23.440;2024-01-30T11:31:57;97020.19;;;1.54;49.57
68179;BME280;69812;42.632;23.440;2024-01-30T11:34:23;97025.63;;;1.76;49.95
68179;BME280;69812;42.632;23.440;2024-01-30T11:36:52;97036.72;;;2.08;48.08
68179;BME280;69812;42.632;23.440;2024-01-30T11:39:24;97042.13;;;1.93;48.41
68179;BME280;69812;42.632;23.440;2024-01-30T11:41:51;97022.31;;;1.73;48.63
68179;BME280;69812;42.632;23.440;2024-01-30T11:44:17;97026.06;;;1.95;49.43
68179;BME280;69812;42.632;23.440;2024-01-30T11:46:43;97027.78;;;1.93;48.77
68179;BME280;69812;42.632;23.440;2024-01-30T11:49:08;97018.34;;;1.61;50.45
68179;BME280;69812;42.632;23.440;2024-01-30T11:51:34;97022.63;;;1.98;49.22
68179;BME280;69812;42.632;23.440;2024-01-30T11:53:59;97021.91;;;2.29;48.89
68179;BME280;69812;42.632;23.440;2024-01-30T11:56:24;97022.28;;;2.12;47.12
68179;BME280;69812;42.632;23.440;2024-01-30T11:58:52;97021.28;;;1.80;47.41
68179;BME280;69812;42.632;23.440;2024-01-30T12:01:17;97018.94;;;1.72;47.80
68179;BME280;69812;42.632;23.440;2024-01-30T12:03:49;97010.13;;;1.89;48.33
68179;BME280;69812;42.632;23.440;2024-01-30T12:06:17;97003.50;;;1.84;47.98
68179;BME280;69812;42.632;23.440;2024-01-30T12:08:42;96995.03;;;1.85;48.63
68179;BME280;69812;42.632;23.440;2024-01-30T12:11:11;96992.00;;;2.07;47.48
68179;BME280;69812;42.632;23.440;2024-01-30T12:13:36;96995.41;;;2.06;46.53
68179;BME280;69812;42.632;23.440;2024-01-30T12:16:03;96982.22;;;1.92;47.81
68179;BME280;69812;42.632;23.440;2024-01-30T12:18:28;96975.84;;;1.36;48.79
68179;BME280;69812;42.632;23.440;2024-01-30T12:21:01;96978.84;;;1.54;48.43
68179;BME280;69812;42.632;23.440;2024-01-30T12:23:27;96981.44;;;1.51;49.09
68179;BME280;69812;42.632;23.440;2024-01-30T12:25:53;96965.69;;;0.96;50.23
68179;BME280;69812;42.632;23.440;2024-01-30T12:28:19;96972.31;;;1.03;50.51
68179;BME280;69812;42.632;23.440;2024-01-30T12:30:45;96968.34;;;0.90;51.16
68179;BME280;69812;42.632;23.440;2024-01-30T12:33:16;96967.72;;;0.78;51.29
68179;BME280;69812;42.632;23.440;2024-01-30T12:35:46;96960.28;;;0.71;51.33
68179;BME280;69812;42.632;23.440;2024-01-30T12:38:13;96956.25;;;0.60;52.08
68179;BME280;69812;42.632;23.440;2024-01-30T12:40:39;96933.13;;;0.35;51.85
68179;BME280;69812;42.632;23.440;2024-01-30T12:43:04;96960.81;;;0.40;51.72
68179;BME280;69812;42.632;23.440;2024-01-30T12:45:30;96948.63;;;0.62;51.63
68179;BME280;69812;42.632;23.440;2024-01-30T12:47:55;96942.59;;;0.69;51.99